Time;durP1;ratioP1;P1;durP2;ratioP2;P2;SDS_P1;SDS_P2;PMS_P1;PMS_P2;Temp;Humidity;BMP_temperature;BMP_pressure;BME280_temperature;BME280_humidity;BME280_pressure;Samples;Min_cycle;Max_cycle;Signal;HPM_P1;HPM_P2
2021/07/09 00:00:57;;;;;;;5.35;3.78;;;;;;;22.19;61.04;102127.03;5034034;28;20035;-58
2021/07/09 00:03:23;;;;;;;4.68;3.20;;;;;;;22.19;61.00;102128.81;5033595;28;20405;-59
2021/07/09 00:05:48;;;;;;;4.88;3.38;;;;;;;22.18;60.82;102122.66;5034676;28;20108;-59
2021/07/09 00:08:13;;;;;;;5.07;3.67;;;;;;;22.18;60.86;102122.66;5036285;28;20036;-59
2021/07/09 00:10:38;;;;;;;5.70;3.45;;;;;;;22.16;60.71;102121.94;5035937;28;20286;-61
2021/07/09 00:13:05;;;;;;;5.50;3.30;;;;;;;22.18;60.97;102124.50;5033987;28;20031;-59
2021/07/09 00:15:30;;;;;;;5.22;3.38;;;;;;;22.17;60.63;102120.97;5032481;28;20037;-59
2021/07/09 00:17:55;;;;;;;5.78;3.40;;;;;;;22.16;60.91;102114.00;5032401;28;20017;-59
2021/07/09 00:20:24;;;;;;;5.07;3.22;;;;;;;22.15;60.91;102109.63;5032283;28;20040;-59
2021/07/09 00:22:49;;;;;;;5.07;3.22;;;;;;;22.16;60.69;102119.28;5032430;28;20025;-59
2021/07/09 00:25:18;;;;;;;4.87;3.40;;;;;;;22.16;60.68;102118.44;5031398;28;20067;-59
2021/07/09 00:27:43;;;;;;;4.93;3.10;;;;;;;22.15;60.69;102122.91;5032114;28;20025;-59
2021/07/09 00:30:09;;;;;;;4.73;2.97;;;;;;;22.13;60.82;102118.66;5032098;28;20573;-57
2021/07/09 00:32:34;;;;;;;4.45;3.30;;;;;;;22.15;60.70;102122.06;5031701;28;20446;-60
2021/07/09 00:34:59;;;;;;;5.83;3.23;;;;;;;22.15;60.83;102122.06;5032673;28;20038;-59
2021/07/09 00:37:24;;;;;;;4.90;3.37;;;;;;;22.14;60.57;102121.19;5032037;28;20068;-60
2021/07/09 00:39:50;;;;;;;4.40;3.00;;;;;;;22.14;60.67;102117.72;5031667;28;20480;-59
2021/07/09 00:42:15;;;;;;;6.47;3.20;;;;;;;22.14;60.62;102120.38;5032199;28;20053;-58
2021/07/09 00:44:40;;;;;;;5.07;2.97;;;;;;;22.13;60.60;102118.66;5032270;28;20270;-59
2021/07/09 00:47:06;;;;;;;5.45;3.17;;;;;;;22.12;60.68;102114.34;5032163;28;20033;-58
2021/07/09 00:49:31;;;;;;;5.32;3.35;;;;;;;22.13;60.24;102108.91;5032255;28;20026;-58
2021/07/09 00:51:56;;;;;;;5.40;3.43;;;;;;;22.10;60.35;102115.31;5032328;28;20037;-58
2021/07/09 00:54:24;;;;;;;4.97;3.30;;;;;;;22.08;60.22;102106.63;5031120;28;20303;-58
2021/07/09 00:56:50;;;;;;;4.55;3.13;;;;;;;22.10;60.60;102115.31;5032036;28;20316;-58
2021/07/09 00:59:21;;;;;;;4.50;3.00;;;;;;;22.09;60.46;102115.41;5031591;28;20116;-57
2021/07/09 01:01:47;;;;;;;5.85;3.30;;;;;;;22.09;60.46;102113.59;5031346;28;20022;-58
2021/07/09 01:04:12;;;;;;;5.10;3.22;;;;;;;22.08;60.20;102111.94;5032139;28;20028;-59
2021/07/09 01:06:38;;;;;;;5.57;3.30;;;;;;;22.08;60.31;102111.09;5031722;28;20117;-59
2021/07/09 01:09:03;;;;;;;4.53;3.05;;;;;;;22.08;60.15;102106.63;5031155;28;20275;-58
2021/07/09 01:11:28;;;;;;;6.33;3.23;;;;;;;22.07;60.11;102120.84;5031605;28;20129;-58
2021/07/09 01:13:53;;;;;;;5.47;2.90;;;;;;;22.08;59.94;102121.72;5031816;28;20271;-58
2021/07/09 01:16:19;;;;;;;4.90;3.23;;;;;;;22.07;60.38;102117.34;5033489;28;20266;-58
2021/07/09 01:18:44;;;;;;;5.00;2.95;;;;;;;22.07;60.14;102118.19;5035558;28;20282;-58
2021/07/09 01:21:10;;;;;;;5.45;3.20;;;;;;;22.02;60.06;102101.78;5034972;28;20022;-59
2021/07/09 01:23:37;;;;;;;5.10;2.90;;;;;;;22.05;59.89;102106.03;5035115;28;20470;-57
2021/07/09 01:26:05;;;;;;;6.25;3.03;;;;;;;22.05;59.79;102117.47;5035202;28;20565;-59
2021/07/09 01:28:30;;;;;;;4.75;2.83;;;;;;;22.04;60.00;102113.13;5034175;28;20079;-58
2021/07/09 01:30:56;;;;;;;4.47;2.85;;;;;;;22.05;59.79;102106.84;5035536;28;20538;-58
2021/07/09 01:33:21;;;;;;;5.18;3.10;;;;;;;22.05;59.82;102112.16;5035295;28;20021;-58
2021/07/09 01:35:47;;;;;;;4.90;2.90;;;;;;;22.04;59.89;102106.97;5034479;28;20110;-58
2021/07/09 01:38:13;;;;;;;5.03;3.10;;;;;;;22.04;59.56;102112.28;5034914;28;20038;-59
2021/07/09 01:40:39;;;;;;;4.47;2.78;;;;;;;22.04;59.68;102113.13;5034878;28;20156;-58
2021/07/09 01:43:06;;;;;;;4.88;2.95;;;;;;;22.03;59.80;102118.56;5034224;28;20030;-59
2021/07/09 01:45:31;;;;;;;7.35;3.20;;;;;;;22.02;59.87;102106.25;5034979;28;20021;-58
2021/07/09 01:47:57;;;;;;;4.93;3.10;;;;;;;22.02;59.71;102101.78;5035229;28;20025;-58
2021/07/09 01:50:24;;;;;;;4.80;2.97;;;;;;;22.02;59.63;102107.09;5034134;28;20055;-58
2021/07/09 01:52:50;;;;;;;4.70;3.00;;;;;;;22.00;59.78;102103.72;5035099;28;20017;-58
2021/07/09 01:55:16;;;;;;;4.60;2.75;;;;;;;22.02;59.74;102114.22;5034561;28;20433;-58
2021/07/09 01:57:42;;;;;;;6.07;2.80;;;;;;;22.01;59.68;102108.06;5034154;28;20033;-58
2021/07/09 02:00:26;;;;;;;5.32;2.90;;;;;;;22.01;59.87;102108.06;5035076;28;20025;-59
2021/07/09 02:02:52;;;;;;;5.60;2.80;;;;;;;22.00;59.66;102109.03;5034869;28;20079;-58
2021/07/09 02:05:19;;;;;;;4.90;3.20;;;;;;;21.98;59.64;102105.63;5033805;28;20373;-60
2021/07/09 02:07:49;;;;;;;5.13;2.92;;;;;;;21.99;59.35;102111.81;5034706;28;20477;-59
2021/07/09 02:10:18;;;;;;;4.25;2.90;;;;;;;22.00;59.54;102113.47;5034345;28;20029;-60
2021/07/09 02:12:43;;;;;;;5.05;3.00;;;;;;;21.99;59.42;102109.16;5034853;28;20079;-58
2021/07/09 02:15:13;;;;;;;4.47;2.90;;;;;;;21.98;59.29;102110.09;5034768;28;20018;-58
2021/07/09 02:17:39;;;;;;;4.72;2.90;;;;;;;21.98;59.48;102107.44;5033401;28;20029;-58
2021/07/09 02:20:07;;;;;;;5.18;3.13;;;;;;;21.97;59.29;102106.63;5034553;28;20319;-59
2021/07/09 02:22:32;;;;;;;4.82;3.17;;;;;;;21.96;59.31;102104.91;5034014;28;20112;-59
2021/07/09 02:24:58;;;;;;;4.40;2.53;;;;;;;21.96;59.13;102107.56;5033831;28;20108;-58
2021/07/09 02:27:26;;;;;;;5.30;2.90;;;;;;;21.95;59.09;102107.69;5033729;28;20022;-58
2021/07/09 02:29:53;;;;;;;4.75;2.90;;;;;;;21.96;59.05;102101.44;5034395;28;20275;-59
2021/07/09 02:32:19;;;;;;;5.53;3.10;;;;;;;21.95;59.08;102105.03;5033396;28;20127;-59
2021/07/09 02:34:44;;;;;;;5.15;2.90;;;;;;;21.95;59.02;102110.34;5034117;28;20038;-59
2021/07/09 02:37:11;;;;;;;5.03;3.45;;;;;;;21.92;58.86;102100.81;5033822;28;20045;-59
2021/07/09 02:39:37;;;;;;;5.85;3.38;;;;;;;21.93;58.97;102113.94;5033355;28;20034;-58
2021/07/09 02:42:04;;;;;;;5.50;2.90;;;;;;;21.93;58.98;102107.81;5034199;28;20029;-59
2021/07/09 02:44:29;;;;;;;4.97;2.85;;;;;;;21.93;59.11;102115.78;5033786;28;20052;-60
2021/07/09 02:46:54;;;;;;;4.70;2.67;;;;;;;21.93;58.87;102115.78;5033251;28;20366;-59
2021/07/09 02:49:23;;;;;;;4.88;2.97;;;;;;;21.92;59.03;102108.75;5033733;28;20275;-58
2021/07/09 02:51:53;;;;;;;4.38;2.70;;;;;;;21.92;58.86;102108.75;5033880;28;20104;-59
2021/07/09 02:54:18;;;;;;;5.07;2.60;;;;;;;21.91;59.06;102115.88;5033062;28;20042;-59
2021/07/09 02:56:44;;;;;;;5.00;2.90;;;;;;;21.91;58.78;102115.88;5033961;28;20044;-59
2021/07/09 02:59:10;;;;;;;5.43;2.60;;;;;;;21.91;59.03;102115.88;5033750;28;20025;-58
2021/07/09 03:01:40;;;;;;;4.82;2.90;;;;;;;21.90;58.69;102116.88;5032692;28;20445;-59
2021/07/09 03:04:06;;;;;;;4.82;3.00;;;;;;;21.90;58.59;102108.91;5033552;28;20033;-59
2021/07/09 03:06:31;;;;;;;4.07;2.60;;;;;;;21.90;58.84;102105.38;5032856;28;20028;-58
2021/07/09 03:08:57;;;;;;;4.70;2.88;;;;;;;21.90;58.84;102108.91;5033495;28;20484;-58
2021/07/09 03:11:22;;;;;;;4.13;2.77;;;;;;;21.89;58.79;102107.22;5032996;28;20446;-58
2021/07/09 03:13:47;;;;;;;4.82;2.90;;;;;;;21.90;58.66;102110.69;5032859;28;20271;-58
2021/07/09 03:16:12;;;;;;;4.20;2.77;;;;;;;21.89;58.52;102114.34;5033522;28;20478;-59
2021/07/09 03:18:38;;;;;;;5.97;2.78;;;;;;;21.89;58.62;102109.88;5033208;28;20267;-59
2021/07/09 03:21:03;;;;;;;5.33;3.00;;;;;;;21.89;58.86;102106.38;5032457;28;20032;-58
2021/07/09 03:23:31;;;;;;;4.65;2.60;;;;;;;21.88;58.69;102108.16;5033159;28;20033;-59
2021/07/09 03:26:00;;;;;;;4.28;2.70;;;;;;;21.88;58.70;102102.03;5033357;28;20025;-58
2021/07/09 03:28:25;;;;;;;4.80;2.60;;;;;;;21.88;58.60;102102.84;5032264;28;20112;-60
2021/07/09 03:30:50;;;;;;;5.00;3.13;;;;;;;21.87;58.46;102100.31;5033242;28;20469;-58
2021/07/09 03:33:16;;;;;;;5.22;2.97;;;;;;;21.87;58.66;102098.53;5032810;28;20270;-58
2021/07/09 03:35:42;;;;;;;4.63;2.60;;;;;;;21.86;58.79;102103.97;5032335;28;20058;-58
2021/07/09 03:38:07;;;;;;;5.13;2.90;;;;;;;21.87;58.55;102100.31;5032509;28;20318;-59
2021/07/09 03:40:33;;;;;;;6.47;2.60;;;;;;;21.86;58.64;102102.13;5032204;28;20057;-59
2021/07/09 03:42:58;;;;;;;4.80;2.67;;;;;;;21.86;58.41;102099.47;5032247;28;20029;-58
2021/07/09 03:45:23;;;;;;;4.40;2.80;;;;;;;21.86;58.50;102104.78;5032533;28;20270;-58
2021/07/09 03:47:48;;;;;;;4.43;2.70;;;;;;;21.85;58.48;102104.91;5032844;28;20040;-60
2021/07/09 03:50:14;;;;;;;5.38;2.97;;;;;;;21.85;58.35;102099.59;5032146;28;20022;-59
2021/07/09 03:52:40;;;;;;;4.38;2.65;;;;;;;21.84;58.38;102104.06;5032961;28;20332;-59
2021/07/09 03:55:09;;;;;;;4.57;2.80;;;;;;;21.84;58.34;102109.38;5032922;28;20026;-59
2021/07/09 03:57:34;;;;;;;4.85;2.70;;;;;;;21.84;58.38;102105.88;5031589;28;20025;-59
2021/07/09 04:00:00;;;;;;;4.28;2.35;;;;;;;21.84;58.22;102101.44;5032672;28;20056;-59
2021/07/09 04:02:25;;;;;;;4.38;2.88;;;;;;;21.83;58.29;102099.72;5032341;28;20051;-58
2021/07/09 04:04:50;;;;;;;5.03;2.75;;;;;;;21.83;58.17;102102.38;5032167;28;20535;-59
2021/07/09 04:07:15;;;;;;;5.57;2.65;;;;;;;21.82;58.33;102098.03;5032509;28;20461;-60
2021/07/09 04:09:41;;;;;;;4.70;2.53;;;;;;;21.82;58.14;102105.16;5032674;28;20029;-59
2021/07/09 04:12:06;;;;;;;4.20;2.53;;;;;;;21.82;58.26;102105.16;5031868;28;20270;-59
2021/07/09 04:14:35;;;;;;;4.45;2.83;;;;;;;21.82;58.25;102102.50;5032180;28;20036;-59
2021/07/09 04:17:00;;;;;;;5.05;2.47;;;;;;;21.80;58.27;102113.22;5031528;28;20041;-60
2021/07/09 04:19:32;;;;;;;4.80;2.83;;;;;;;21.82;57.93;102110.47;5031807;28;20026;-59
2021/07/09 04:21:57;;;;;;;4.53;2.90;;;;;;;21.80;58.16;102107.09;5032624;28;20278;-60
2021/07/09 04:24:22;;;;;;;4.75;2.50;;;;;;;21.81;58.00;102108.75;5031242;28;20377;-59
2021/07/09 04:26:48;;;;;;;4.70;2.50;;;;;;;21.80;58.00;102115.88;5032256;28;20104;-58
2021/07/09 04:29:19;;;;;;;4.10;2.47;;;;;;;21.80;58.34;102115.88;5032076;28;20025;-59
2021/07/09 04:31:44;;;;;;;5.15;2.88;;;;;;;21.81;58.10;102116.72;5031384;28;20457;-59
2021/07/09 04:34:09;;;;;;;4.33;2.53;;;;;;;21.81;58.08;102119.38;5032290;28;20033;-59
2021/07/09 04:36:35;;;;;;;4.60;2.60;;;;;;;21.80;58.24;102121.19;5031916;28;20599;-58
2021/07/09 04:39:00;;;;;;;5.45;2.78;;;;;;;21.80;58.01;102123.84;5031111;28;20444;-59
2021/07/09 04:41:25;;;;;;;4.00;2.37;;;;;;;21.80;58.15;102121.19;5031707;28;20453;-59
2021/07/09 04:43:51;;;;;;;3.92;2.20;;;;;;;21.81;58.03;102122.03;5032077;28;20270;-58
2021/07/09 04:46:16;;;;;;;4.68;2.67;;;;;;;21.80;57.82;102115.03;5030898;28;20385;-58
2021/07/09 04:48:41;;;;;;;5.13;2.40;;;;;;;21.80;58.10;102123.84;5031887;28;20377;-59
2021/07/09 04:51:06;;;;;;;4.47;2.63;;;;;;;21.78;58.15;102115.16;5034612;28;20107;-59
2021/07/09 04:53:34;;;;;;;5.10;2.50;;;;;;;21.79;58.00;102118.66;5035120;28;20025;-60
2021/07/09 04:56:00;;;;;;;4.72;2.30;;;;;;;21.80;58.09;102123.00;5036016;28;20037;-59
2021/07/09 04:58:25;;;;;;;4.38;2.67;;;;;;;21.80;58.19;102120.34;5035766;28;20030;-58
2021/07/09 05:00:50;;;;;;;4.35;2.80;;;;;;;21.80;57.96;102123.84;5035028;28;20030;-59
2021/07/09 05:03:16;;;;;;;5.13;2.97;;;;;;;21.79;58.13;102122.13;5035758;28;20021;-59
2021/07/09 05:05:41;;;;;;;4.60;2.80;;;;;;;21.80;58.04;102118.53;5036012;28;20071;-58
2021/07/09 05:08:07;;;;;;;4.47;2.60;;;;;;;21.79;58.02;102119.47;5034975;28;20079;-58
2021/07/09 05:10:33;;;;;;;5.20;2.92;;;;;;;21.80;57.99;102121.19;5035336;28;20084;-59
2021/07/09 05:12:58;;;;;;;4.65;2.65;;;;;;;21.80;57.98;102130.97;5035634;28;20017;-59
2021/07/09 05:15:23;;;;;;;4.07;2.50;;;;;;;21.79;58.14;102131.91;5034576;28;20017;-59
2021/07/09 05:17:49;;;;;;;4.35;2.55;;;;;;;21.78;58.07;102130.22;5035668;28;20052;-59
2021/07/09 05:20:14;;;;;;;5.63;2.80;;;;;;;21.79;58.14;102129.25;5034710;28;20061;-59
2021/07/09 05:22:41;;;;;;;4.25;2.72;;;;;;;21.81;57.94;102124.69;5035314;28;20274;-59
2021/07/09 05:25:07;;;;;;;4.32;2.50;;;;;;;21.79;58.01;102116.81;5035381;28;20029;-60
2021/07/09 05:27:33;;;;;;;3.80;2.45;;;;;;;21.81;58.08;102114.06;5034440;28;20021;-59
2021/07/09 05:29:59;;;;;;;4.80;2.60;;;;;;;21.80;58.04;102115.03;5035188;28;20079;-59
2021/07/09 05:32:26;;;;;;;3.90;2.25;;;;;;;21.80;58.01;102118.53;5035273;28;20059;-60
2021/07/09 05:34:56;;;;;;;4.85;2.88;;;;;;;21.80;58.05;102118.53;5034589;28;20025;-59
2021/07/09 05:37:21;;;;;;;4.47;2.55;;;;;;;21.80;58.20;102126.50;5034725;28;20054;-59
2021/07/09 05:39:50;;;;;;;4.70;2.60;;;;;;;21.80;58.19;102130.97;5035232;28;20040;-59
2021/07/09 05:42:19;;;;;;;4.15;2.60;;;;;;;21.82;58.07;102135.16;5034107;28;20381;-60
2021/07/09 05:44:44;;;;;;;4.72;2.50;;;;;;;21.81;58.14;102132.63;5034927;28;20436;-59
2021/07/09 05:47:11;;;;;;;4.22;2.60;;;;;;;21.82;58.05;102135.16;5034900;28;20025;-59
2021/07/09 05:49:36;;;;;;;5.05;2.70;;;;;;;21.81;57.85;102127.31;5033979;28;20390;-58
2021/07/09 05:52:02;;;;;;;4.30;2.40;;;;;;;21.82;58.11;102127.22;5034898;28;20021;-59
2021/07/09 05:54:27;;;;;;;4.47;2.63;;;;;;;21.83;58.11;102128.91;5034540;28;20030;-59
2021/07/09 05:56:52;;;;;;;4.78;2.75;;;;;;;21.82;58.20;102127.22;5034076;28;20030;-59
2021/07/09 05:59:21;;;;;;;3.93;2.30;;;;;;;21.83;58.40;102126.25;5034261;28;20025;-58
2021/07/09 06:01:46;;;;;;;4.45;2.67;;;;;;;21.83;58.16;102122.78;5033880;28;20329;-60
2021/07/09 06:04:13;;;;;;;4.20;2.60;;;;;;;21.83;58.22;102123.59;5034054;28;20025;-58
2021/07/09 06:06:39;;;;;;;4.63;2.60;;;;;;;21.83;58.15;102125.44;5034724;28;20259;-58
2021/07/09 06:09:04;;;;;;;3.83;2.28;;;;;;;21.82;58.13;102127.22;5034682;28;20025;-59
2021/07/09 06:11:30;;;;;;;4.70;2.53;;;;;;;21.84;58.22;102124.44;5033538;28;20075;-59
2021/07/09 06:13:55;;;;;;;4.10;2.50;;;;;;;21.84;58.12;102119.13;5034511;28;20034;-60
2021/07/09 06:16:27;;;;;;;4.07;2.47;;;;;;;21.83;58.23;102125.44;5034259;28;20476;-59
2021/07/09 06:18:52;;;;;;;4.30;2.53;;;;;;;21.84;58.14;102130.63;5035130;28;20025;-60
2021/07/09 06:21:18;;;;;;;4.80;2.90;;;;;;;21.87;58.06;102129.50;5035085;28;20032;-58
2021/07/09 06:23:43;;;;;;;4.18;2.53;;;;;;;21.87;58.01;102118.91;5035072;28;20488;-57
2021/07/09 06:26:09;;;;;;;5.00;2.70;;;;;;;21.89;58.17;102125.78;5036127;28;20025;-59
2021/07/09 06:28:34;;;;;;;4.80;2.83;;;;;;;21.92;58.40;102130.00;5035993;28;20029;-58
2021/07/09 06:31:00;;;;;;;4.55;2.95;;;;;;;21.94;58.34;102136.06;5034472;28;20026;-58
2021/07/09 06:33:25;;;;;;;5.85;2.70;;;;;;;21.98;58.47;102134.00;5035011;28;20025;-58
2021/07/09 06:35:50;;;;;;;4.70;2.73;;;;;;;22.01;58.79;102131.94;5034739;28;20033;-58
2021/07/09 06:38:16;;;;;;;4.72;2.78;;;;;;;22.03;58.70;102129.16;5033315;28;20301;-59
2021/07/09 06:40:43;;;;;;;5.70;3.08;;;;;;;22.04;58.70;102131.69;5034909;28;20033;-59
2021/07/09 06:43:10;;;;;;;5.80;2.70;;;;;;;22.07;58.86;102135.94;5035089;28;20076;-59
2021/07/09 06:45:35;;;;;;;5.22;2.90;;;;;;;22.08;58.83;102137.66;5034536;28;20029;-59
2021/07/09 06:48:02;;;;;;;4.93;2.90;;;;;;;22.05;58.93;102133.41;5035286;28;20025;-59
2021/07/09 06:50:37;;;;;;;5.60;3.17;;;;;;;22.11;58.79;102140.03;5034786;28;20030;-59
2021/07/09 06:53:06;;;;;;;4.65;3.10;;;;;;;22.13;58.71;102145.22;5033779;28;20026;-59
2021/07/09 06:55:32;;;;;;;5.22;2.88;;;;;;;22.12;58.78;102141.72;5033644;28;20025;-59
2021/07/09 06:57:57;;;;;;;5.65;3.00;;;;;;;22.13;58.75;102147.88;5033831;28;20509;-59
2021/07/09 07:00:23;;;;;;;4.90;3.10;;;;;;;22.14;58.76;102150.41;5032514;28;20057;-58
2021/07/09 07:02:49;;;;;;;5.10;3.10;;;;;;;22.16;58.68;102151.16;5034094;28;20022;-59
2021/07/09 07:05:15;;;;;;;5.47;2.97;;;;;;;22.19;59.12;102150.06;5034235;28;20022;-59
2021/07/09 07:07:41;;;;;;;5.00;2.90;;;;;;;22.23;59.14;102151.50;5033953;28;20056;-59
2021/07/09 07:10:08;;;;;;;6.40;2.97;;;;;;;22.25;59.42;102149.56;5033616;28;20454;-59
2021/07/09 07:12:34;;;;;;;5.60;3.10;;;;;;;22.27;59.26;102147.63;5033299;28;20108;-58
2021/07/09 07:14:59;;;;;;;6.07;2.70;;;;;;;22.27;59.54;102152.94;5033347;28;20104;-58
2021/07/09 07:17:24;;;;;;;5.60;3.10;;;;;;;22.28;59.35;102149.34;5033156;28;20021;-59
2021/07/09 07:19:49;;;;;;;5.43;2.67;;;;;;;22.29;59.30;102148.38;5032474;28;20084;-59
2021/07/09 07:22:20;;;;;;;6.27;3.00;;;;;;;22.31;59.12;102156.25;5033535;28;20033;-60
2021/07/09 07:24:52;;;;;;;7.80;2.85;;;;;;;22.33;59.01;102156.97;5033200;28;20282;-58
2021/07/09 07:27:27;;;;;;;4.35;2.88;;;;;;;22.35;59.05;102157.69;5032068;28;20029;-58
2021/07/09 07:29:55;;;;;;;5.25;2.70;;;;;;;22.30;59.12;102142.13;5033067;28;20025;-58
2021/07/09 07:32:23;;;;;;;6.47;2.83;;;;;;;22.35;59.05;102166.53;5032744;28;20056;-59
2021/07/09 07:34:48;;;;;;;8.10;2.83;;;;;;;22.36;58.86;102149.59;5032125;28;20473;-60
2021/07/09 07:37:16;;;;;;;6.05;3.38;;;;;;;22.36;58.31;102154.09;5032567;28;20034;-60
2021/07/09 07:39:42;;;;;;;5.07;2.78;;;;;;;22.33;58.47;102147.19;5030974;28;20531;-59
2021/07/09 07:42:07;;;;;;;6.38;3.40;;;;;;;22.33;58.23;102149.84;5032206;28;20033;-60
2021/07/09 07:44:32;;;;;;;5.82;3.22;;;;;;;22.33;57.92;102151.66;5030739;28;20033;-58
2021/07/09 07:46:58;;;;;;;6.47;3.17;;;;;;;22.31;58.06;102143.81;5032061;28;20022;-60
2021/07/09 07:49:24;;;;;;;11.20;3.00;;;;;;;22.31;58.13;102146.47;5031145;28;20079;-59
2021/07/09 07:51:52;;;;;;;6.40;3.05;;;;;;;22.32;58.14;102136.69;5029952;28;20018;-59
2021/07/09 07:54:18;;;;;;;6.03;3.20;;;;;;;22.27;58.03;102145.84;5032014;28;20052;-60
2021/07/09 07:56:44;;;;;;;6.38;2.90;;;;;;;22.30;58.21;102147.44;5032137;28;20025;-59
2021/07/09 07:59:10;;;;;;;7.10;3.70;;;;;;;22.31;58.25;102151.78;5032545;28;20027;-59
2021/07/09 08:01:38;;;;;;;4.93;2.47;;;;;;;22.33;58.60;102151.66;5032405;28;20079;-58
2021/07/09 08:04:04;;;;;;;5.75;3.20;;;;;;;22.34;58.38;102150.72;5031705;28;20338;-59
2021/07/09 08:06:29;;;;;;;4.97;2.90;;;;;;;22.34;58.46;102140.09;5032352;28;20029;-59
2021/07/09 08:08:55;;;;;;;6.07;2.97;;;;;;;22.41;58.33;102149.25;5032593;28;20494;-59
2021/07/09 08:11:21;;;;;;;5.65;2.90;;;;;;;22.43;58.45;102142.84;5031380;28;20024;-58
2021/07/09 08:13:47;;;;;;;4.93;2.83;;;;;;;22.47;58.45;102148.75;5032319;28;20041;-59
2021/07/09 08:16:12;;;;;;;5.55;2.72;;;;;;;22.46;58.66;102142.59;5031812;28;20075;-59
2021/07/09 08:18:37;;;;;;;7.72;3.08;;;;;;;22.49;58.36;102143.31;5032183;28;20026;-57
2021/07/09 08:21:05;;;;;;;4.88;2.80;;;;;;;22.51;58.16;102147.56;5032098;28;20164;-59
2021/07/09 08:23:31;;;;;;;7.63;3.30;;;;;;;22.52;58.35;102145.75;5031976;28;20030;-58
2021/07/09 08:26:00;;;;;;;5.72;3.33;;;;;;;22.53;58.73;102148.28;5031871;28;20036;-68
2021/07/09 08:28:27;;;;;;;5.32;3.05;;;;;;;22.54;58.60;102139.34;5034121;28;20345;-69
2021/07/09 08:30:52;;;;;;;5.68;3.40;;;;;;;22.55;58.62;102151.66;5016868;28;20040;-72
2021/07/09 08:33:18;;;;;;;6.80;3.28;;;;;;;22.54;58.66;102149.09;5012271;28;20018;-73
2021/07/09 08:35:43;;;;;;;6.28;3.67;;;;;;;22.52;58.69;102153.72;5012927;28;20105;-71
2021/07/09 08:38:08;;;;;;;6.65;3.42;;;;;;;22.51;58.77;102154.66;5012079;28;20081;-71
2021/07/09 08:40:37;;;;;;;8.38;3.53;;;;;;;22.49;58.74;102151.28;5012846;28;20077;-73
2021/07/09 08:43:03;;;;;;;8.50;3.78;;;;;;;22.50;58.95;102150.34;5013275;28;20042;-73
2021/07/09 08:45:28;;;;;;;8.32;3.90;;;;;;;22.49;58.78;102146.81;5011757;28;20424;-71
2021/07/09 08:47:55;;;;;;;5.88;3.53;;;;;;;22.48;59.11;102146.94;5012348;28;20486;-71
2021/07/09 08:50:21;;;;;;;7.40;3.38;;;;;;;22.50;58.89;102145.84;5012427;28;20034;-72
2021/07/09 08:52:46;;;;;;;6.43;3.47;;;;;;;22.49;59.03;102143.31;5012263;28;20067;-72
2021/07/09 08:55:18;;;;;;;5.53;3.38;;;;;;;22.52;59.01;102146.56;5012993;28;20462;-72
2021/07/09 08:57:44;;;;;;;9.50;3.67;;;;;;;22.51;59.03;102138.72;5012852;28;20022;-72
2021/07/09 09:00:21;;;;;;;6.38;3.63;;;;;;;22.51;58.99;102149.34;5011812;28;20435;-72
2021/07/09 09:02:48;;;;;;;5.68;3.70;;;;;;;22.51;59.18;102133.41;5012570;28;20473;-71
2021/07/09 09:05:24;;;;;;;6.50;3.63;;;;;;;22.49;59.28;102128.22;5012986;28;20115;-71
2021/07/09 09:07:58;;;;;;;5.22;3.60;;;;;;;22.48;59.08;102137.19;5013097;28;20030;-72
2021/07/09 09:10:42;;;;;;;5.50;3.65;;;;;;;22.50;59.20;102134.41;5012586;28;20109;-72
2021/07/09 09:13:35;;;;;;;6.40;4.00;;;;;;;22.51;59.22;102139.59;5011998;28;20416;-72
2021/07/09 09:16:16;;;;;;;5.65;3.95;;;;;;;22.50;59.16;102129.91;5011899;28;20049;-72
2021/07/09 09:18:47;;;;;;;8.23;4.55;;;;;;;22.53;59.12;102128.84;5012646;28;20419;-72
2021/07/09 09:21:16;;;;;;;6.18;3.72;;;;;;;22.53;59.19;102120.88;5012124;28;20030;-73
2021/07/09 09:23:47;;;;;;;6.82;4.53;;;;;;;22.51;59.14;102130.75;5012425;28;20491;-72
2021/07/09 09:26:14;;;;;;;7.22;4.20;;;;;;;22.49;59.33;102127.38;5012704;28;20030;-72
2021/07/09 09:28:40;;;;;;;6.85;4.80;;;;;;;22.46;59.37;102121.34;5012113;28;20027;-72
2021/07/09 09:31:07;;;;;;;7.10;4.80;;;;;;;22.47;59.33;102127.50;5012186;28;20493;-71
2021/07/09 09:33:38;;;;;;;7.55;5.15;;;;;;;22.48;59.39;102128.34;5011635;28;20029;-72
2021/07/09 09:36:07;;;;;;;6.70;4.88;;;;;;;22.49;59.25;102114.94;5012724;28;20028;-71
2021/07/09 09:38:33;;;;;;;6.90;4.75;;;;;;;22.50;59.46;102113.97;5014599;28;20046;-72
2021/07/09 09:40:59;;;;;;;6.82;4.90;;;;;;;22.49;59.45;102111.44;5015317;28;20088;-72
2021/07/09 09:43:27;;;;;;;7.57;5.18;;;;;;;22.48;59.40;102112.41;5016099;28;20053;-72
2021/07/09 09:46:09;;;;;;;7.57;5.15;;;;;;;22.48;59.50;102112.41;5016092;28;20029;-73
2021/07/09 09:48:47;;;;;;;8.18;5.22;;;;;;;22.47;59.46;102111.56;5015439;28;20045;-71
2021/07/09 09:51:39;;;;;;;8.70;5.43;;;;;;;22.47;59.33;102106.25;5015552;28;20022;-68
2021/07/09 09:54:10;;;;;;;8.15;6.47;;;;;;;22.49;59.26;102106.13;5016198;28;20401;-75
2021/07/09 09:56:48;;;;;;;9.43;6.32;;;;;;;22.46;59.05;102104.56;5015679;28;20149;-83
2021/07/09 09:59:26;;;;;;;9.48;6.07;;;;;;;22.46;59.43;102109.88;5016597;28;20021;-82
2021/07/09 10:01:57;;;;;;;8.57;6.18;;;;;;;22.45;59.25;102098.41;5015088;28;20140;-72
2021/07/09 10:04:24;;;;;;;9.77;6.72;;;;;;;22.47;59.57;102100.94;5015787;28;20110;-72
2021/07/09 10:06:49;;;;;;;8.43;7.30;;;;;;;22.50;59.43;102100.69;5015573;28;20026;-72
2021/07/09 10:09:16;;;;;;;11.82;7.22;;;;;;;22.51;59.34;102093.56;5014971;28;20030;-75
2021/07/09 10:11:42;;;;;;;11.07;7.28;;;;;;;22.51;59.21;102089.13;5017348;28;20018;-74
2021/07/09 10:14:11;;;;;;;11.13;7.65;;;;;;;22.51;59.26;102091.78;5016813;28;20065;-72
2021/07/09 10:16:38;;;;;;;8.85;7.45;;;;;;;22.53;59.32;102089.00;5014578;28;20026;-77
2021/07/09 10:19:07;;;;;;;9.52;8.40;;;;;;;22.55;59.12;102087.06;5016818;28;20026;-72
2021/07/09 10:21:38;;;;;;;10.60;7.80;;;;;;;22.54;59.22;102095.97;5015569;28;20106;-73
2021/07/09 10:24:04;;;;;;;9.15;8.07;;;;;;;22.56;59.31;102088.75;5015401;28;20758;-73
2021/07/09 10:26:34;;;;;;;11.85;8.27;;;;;;;22.58;59.02;102089.47;5016204;28;20026;-72
2021/07/09 10:29:13;;;;;;;10.43;8.85;;;;;;;22.59;59.17;102085.84;5016905;28;20370;-71
2021/07/09 10:31:42;;;;;;;9.55;8.55;;;;;;;22.58;59.08;102089.47;5016202;28;20026;-73
2021/07/09 10:34:30;;;;;;;9.73;8.07;;;;;;;22.60;59.21;102085.69;5019562;28;20026;-77
2021/07/09 10:37:03;;;;;;;9.82;8.30;;;;;;;22.64;59.18;102087.16;5017913;28;20394;-73
2021/07/09 10:39:42;;;;;;;9.55;8.02;;;;;;;22.68;59.10;102093.03;5016015;28;20058;-71
2021/07/09 10:42:23;;;;;;;10.52;8.98;;;;;;;22.69;59.20;102086.78;5018187;28;20516;-77
2021/07/09 10:45:13;;;;;;;10.23;8.40;;;;;;;22.72;58.88;102083.88;5018954;28;20049;-78
2021/07/09 10:47:44;;;;;;;10.77;8.35;;;;;;;22.75;58.76;102088.09;5018487;28;20038;-73
2021/07/09 10:50:37;;;;;;;9.02;7.80;;;;;;;22.74;58.65;102086.41;5014650;28;20466;-74
2021/07/09 10:53:18;;;;;;;12.60;8.30;;;;;;;22.74;58.86;102084.56;5013715;28;20462;-71
2021/07/09 10:55:52;;;;;;;10.82;8.20;;;;;;;22.75;58.84;102075.66;5014732;28;20021;-70
2021/07/09 10:58:19;;;;;;;9.48;7.70;;;;;;;22.74;59.11;102073.94;5013328;28;20026;-71
2021/07/09 11:00:46;;;;;;;10.20;8.63;;;;;;;22.77;59.29;102079.00;5014218;28;20405;-75
2021/07/09 11:03:31;;;;;;;10.57;8.13;;;;;;;22.80;59.26;102076.09;5014992;28;20486;-78
2021/07/09 11:05:58;;;;;;;10.60;7.88;;;;;;;22.79;59.12;102077.06;5015423;28;20030;-82
2021/07/09 11:08:29;;;;;;;11.10;7.78;;;;;;;22.82;59.29;102082.13;5014424;28;20080;-74
2021/07/09 11:11:12;;;;;;;9.70;7.70;;;;;;;22.83;59.28;102072.38;5014910;28;20057;-75
2021/07/09 11:13:40;;;;;;;12.85;8.02;;;;;;;22.85;59.01;102077.56;5014157;28;20041;-77
2021/07/09 11:16:24;;;;;;;9.75;7.78;;;;;;;22.86;59.18;102073.91;5014349;28;20374;-72
2021/07/09 11:19:03;;;;;;;9.75;8.75;;;;;;;22.87;59.02;102071.13;5014481;28;20026;-71
2021/07/09 11:21:29;;;;;;;9.23;8.10;;;;;;;22.90;58.92;102072.69;5014457;28;20105;-72
2021/07/09 11:23:54;;;;;;;10.60;7.93;;;;;;;22.90;59.17;102075.34;5014185;28;20507;-72
2021/07/09 11:26:22;;;;;;;10.20;7.78;;;;;;;22.89;59.21;102071.88;5013555;28;20109;-73